createdAt,value
2023-04-11T00:00:55.909Z,8.53
2023-04-11T00:04:48.853Z,8.28
2023-04-11T00:08:41.090Z,8.25
2023-04-11T00:12:33.694Z,8.05
2023-04-11T00:16:27.028Z,8.04
2023-04-11T00:20:20.129Z,7.85
2023-04-11T00:24:12.841Z,7.76
2023-04-11T00:28:05.087Z,7.70
2023-04-11T00:31:57.571Z,7.61
2023-04-11T00:35:50.077Z,7.76
2023-04-11T00:39:42.468Z,7.80
2023-04-11T00:43:34.934Z,7.85
2023-04-11T00:47:27.689Z,7.31
2023-04-11T00:51:20.657Z,7.20
2023-04-11T00:55:13.341Z,7.35
2023-04-11T00:59:05.915Z,7.58
2023-04-11T01:02:58.382Z,7.66
2023-04-11T01:06:53.186Z,7.47
2023-04-11T01:10:45.747Z,7.41
2023-04-11T01:14:38.663Z,7.52
2023-04-11T01:18:31.267Z,7.72
2023-04-11T01:22:24.672Z,7.82
2023-04-11T01:26:16.867Z,7.63
2023-04-11T01:30:09.974Z,7.63
2023-04-11T01:34:02.870Z,7.25
2023-04-11T01:37:55.551Z,7.29
2023-04-11T01:41:48.157Z,7.12
2023-04-11T01:45:40.902Z,7.25
2023-04-11T01:49:33.982Z,7.08
2023-04-11T01:53:26.353Z,7.04
2023-04-11T01:57:18.642Z,6.93
2023-04-11T02:01:13.313Z,7.03
2023-04-11T02:05:05.846Z,7.08
2023-04-11T02:08:58.339Z,6.99
2023-04-11T02:12:50.804Z,7.05
2023-04-11T02:16:53.112Z,6.77
2023-04-11T02:20:45.289Z,6.82
2023-04-11T02:24:37.982Z,6.76
2023-04-11T02:28:30.547Z,6.79
2023-04-11T02:32:23.067Z,6.86
2023-04-11T02:36:15.398Z,6.80
2023-04-11T02:40:09.236Z,6.79
2023-04-11T02:44:02.044Z,6.82
2023-04-11T02:47:54.475Z,6.56
2023-04-11T02:51:47.427Z,6.72
2023-04-11T02:55:39.825Z,6.63
2023-04-11T02:59:32.351Z,6.53
2023-04-11T03:03:24.944Z,6.39
2023-04-11T03:07:17.395Z,6.44
2023-04-11T03:11:10.808Z,6.29
2023-04-11T03:15:03.286Z,6.34
2023-04-11T03:18:56.087Z,6.36
2023-04-11T03:22:49.533Z,6.39
2023-04-11T03:26:42.013Z,6.49
2023-04-11T03:30:34.552Z,6.18
2023-04-11T03:34:27.179Z,5.87
2023-04-11T03:38:21.112Z,5.70
2023-04-11T03:42:13.524Z,5.69
2023-04-11T03:46:05.985Z,5.91
2023-04-11T03:49:58.468Z,5.79
2023-04-11T03:53:52.719Z,6.11
2023-04-11T03:57:44.995Z,5.93
2023-04-11T04:01:38.319Z,5.87
2023-04-11T04:05:30.900Z,5.93
2023-04-11T04:09:24.516Z,5.91
2023-04-11T04:13:17.113Z,6.00
2023-04-11T04:17:09.606Z,5.86
2023-04-11T04:21:02.015Z,6.01
2023-04-11T04:24:58.404Z,5.93
2023-04-11T04:28:50.942Z,5.80
2023-04-11T04:32:46.389Z,5.53
2023-04-11T04:36:48.097Z,5.69
2023-04-11T04:40:42.120Z,5.76
2023-04-11T04:44:34.318Z,6.24
2023-04-11T04:48:26.763Z,6.63
2023-04-11T04:52:18.994Z,6.53
2023-04-11T04:56:12.048Z,6.42
2023-04-11T05:00:11.990Z,6.79
2023-04-11T05:04:06.054Z,7.65
2023-04-11T05:07:58.722Z,9.06
2023-04-11T05:11:51.284Z,10.09
2023-04-11T05:15:50.085Z,10.89
2023-04-11T05:19:43.373Z,10.85
2023-04-11T05:23:35.869Z,11.23
2023-04-11T05:27:28.106Z,11.71
2023-04-11T05:31:21.107Z,12.12
2023-04-11T05:35:14.000Z,11.58
2023-04-11T05:39:08.916Z,12.17
2023-04-11T05:43:01.439Z,12.34
2023-04-11T05:46:53.634Z,12.02
2023-04-11T05:50:46.473Z,11.71
2023-04-11T05:54:38.999Z,11.57
2023-04-11T05:58:31.422Z,11.65
2023-04-11T06:02:25.988Z,11.71
2023-04-11T06:06:18.484Z,11.79
2023-04-11T06:10:11.280Z,11.69
2023-04-11T06:14:04.256Z,12.02
2023-04-11T06:17:56.681Z,12.34
2023-04-11T06:21:49.156Z,12.37
2023-04-11T06:25:41.655Z,13.02
2023-04-11T06:29:34.296Z,12.93
2023-04-11T06:33:27.154Z,13.65
2023-04-11T06:37:19.874Z,13.67
2023-04-11T06:41:12.361Z,13.86
2023-04-11T06:45:06.236Z,13.89
2023-04-11T06:48:58.709Z,14.53
2023-04-11T06:52:51.307Z,15.19
2023-04-11T06:56:44.404Z,15.66
2023-04-11T07:00:36.821Z,16.05
2023-04-11T07:04:29.593Z,16.70
2023-04-11T07:08:22.107Z,16.83
2023-04-11T07:12:14.505Z,16.79
2023-04-11T07:16:07.216Z,15.97
2023-04-11T07:19:59.792Z,15.01
2023-04-11T07:23:53.517Z,14.77
2023-04-11T07:27:46.742Z,14.71
2023-04-11T07:31:39.296Z,14.59
2023-04-11T07:35:33.727Z,14.40
2023-04-11T07:39:27.338Z,14.20
2023-04-11T07:43:19.724Z,13.95
2023-04-11T07:47:12.331Z,13.95
2023-04-11T07:51:05.189Z,14.13
2023-04-11T07:54:57.961Z,14.37
2023-04-11T07:58:50.255Z,14.50
2023-04-11T08:02:42.884Z,14.43
2023-04-11T08:06:35.312Z,14.49
2023-04-11T08:10:27.987Z,14.51
2023-04-11T08:14:21.498Z,14.57
2023-04-11T08:18:16.662Z,14.87
2023-04-11T08:22:09.156Z,14.83
2023-04-11T08:26:02.000Z,14.98
2023-04-11T08:29:54.551Z,15.11
2023-04-11T08:33:47.050Z,15.06
2023-04-11T08:37:39.518Z,15.29
2023-04-11T08:41:32.366Z,15.44
2023-04-11T08:45:24.849Z,15.66
2023-04-11T08:49:17.033Z,15.61
2023-04-11T08:53:09.990Z,15.64
2023-04-11T08:57:02.278Z,15.71
2023-04-11T09:00:54.747Z,15.74
2023-04-11T09:04:50.491Z,15.88
2023-04-11T09:08:42.719Z,16.02
2023-04-11T09:12:35.088Z,16.22
2023-04-11T09:16:27.689Z,16.42
2023-04-11T09:20:21.144Z,16.69
2023-04-11T09:24:14.502Z,16.83
2023-04-11T09:28:09.148Z,16.79
2023-04-11T09:32:01.634Z,16.66
2023-04-11T09:35:55.175Z,16.60
2023-04-11T09:39:57.140Z,16.76
2023-04-11T09:43:53.384Z,16.83
2023-04-11T09:47:46.541Z,16.93
2023-04-11T09:51:40.824Z,16.91
2023-04-11T09:55:33.174Z,16.97
2023-04-11T09:59:26.760Z,17.14
2023-04-11T10:03:22.311Z,17.00
2023-04-11T10:07:17.249Z,17.06
2023-04-11T10:11:10.430Z,16.93
2023-04-11T10:15:07.262Z,16.99
2023-04-11T10:19:02.656Z,16.91
2023-04-11T10:22:58.900Z,17.01
2023-04-11T10:26:53.242Z,17.14
2023-04-11T10:30:45.610Z,17.17
2023-04-11T10:34:58.889Z,17.14
2023-04-11T10:38:51.752Z,17.17
2023-04-11T10:42:44.876Z,17.24
2023-04-11T10:46:44.194Z,17.34
2023-04-11T10:50:42.223Z,17.29
2023-04-11T10:54:34.864Z,17.08
2023-04-11T10:58:34.498Z,17.08
2023-04-11T11:02:36.765Z,17.27
2023-04-11T11:06:29.742Z,17.55
2023-04-11T11:10:37.656Z,17.57
2023-04-11T11:14:30.727Z,17.70
2023-04-11T11:18:22.921Z,17.63
2023-04-11T11:22:18.787Z,17.53
2023-04-11T11:26:11.202Z,17.49
2023-04-11T11:30:12.744Z,17.53
2023-04-11T11:34:22.141Z,17.45
2023-04-11T11:38:16.411Z,17.39
2023-04-11T11:42:08.975Z,17.52
2023-04-11T11:46:30.571Z,17.42
2023-04-11T11:50:30.189Z,17.53
2023-04-11T11:54:22.884Z,17.48
2023-04-11T11:58:15.733Z,17.66
2023-04-11T12:02:08.934Z,17.98
2023-04-11T12:06:01.436Z,18.08
2023-04-11T12:10:09.160Z,18.03
2023-04-11T12:14:02.077Z,18.10
2023-04-11T12:17:55.387Z,18.13
2023-04-11T12:21:47.830Z,18.11
2023-04-11T12:25:41.122Z,18.08
2023-04-11T12:29:33.272Z,18.11
2023-04-11T12:33:25.878Z,18.20
2023-04-11T12:37:18.295Z,18.24
2023-04-11T12:41:30.786Z,18.27
2023-04-11T12:45:23.668Z,18.35
2023-04-11T12:49:16.074Z,18.35
2023-04-11T12:53:08.367Z,18.30
2023-04-11T12:57:00.663Z,18.25
2023-04-11T13:00:53.024Z,18.13
2023-04-11T13:04:45.773Z,18.13
2023-04-11T13:08:38.041Z,18.07
2023-04-11T13:12:31.625Z,17.84
2023-04-11T13:16:24.164Z,17.75
2023-04-11T13:20:17.123Z,17.73
2023-04-11T13:24:09.467Z,17.63
2023-04-11T13:28:01.856Z,17.28
2023-04-11T13:31:54.459Z,17.17
2023-04-11T13:35:47.178Z,17.11
2023-04-11T13:39:39.966Z,16.91
2023-04-11T13:43:32.250Z,16.73
2023-04-11T13:47:24.785Z,16.64
2023-04-11T13:51:17.225Z,16.49
2023-04-11T13:55:09.736Z,16.48
2023-04-11T13:59:02.151Z,16.36
2023-04-11T14:02:55.128Z,16.30
2023-04-11T14:06:48.012Z,16.28
2023-04-11T14:10:40.896Z,16.14
2023-04-11T14:14:33.149Z,16.02
2023-04-11T14:18:25.682Z,15.83
2023-04-11T14:22:17.906Z,15.61
2023-04-11T14:26:10.498Z,15.49
2023-04-11T14:30:03.309Z,15.25
2023-04-11T14:33:56.718Z,14.92
2023-04-11T14:37:49.883Z,14.67
2023-04-11T14:41:42.301Z,14.30
2023-04-11T14:45:34.759Z,14.00
2023-04-11T14:49:27.294Z,13.88
2023-04-11T14:53:19.855Z,13.58
2023-04-11T14:57:12.754Z,13.23
2023-04-11T15:01:05.341Z,13.00
2023-04-11T15:04:57.687Z,12.80
2023-04-11T15:08:50.587Z,12.36
2023-04-11T15:12:43.520Z,12.43
2023-04-11T15:16:36.270Z,12.29
2023-04-11T15:20:28.745Z,12.16
2023-04-11T15:24:21.773Z,12.24
2023-04-11T15:28:14.211Z,12.23
2023-04-11T15:32:06.762Z,12.36
2023-04-11T15:36:00.845Z,12.33
2023-04-11T15:39:53.678Z,12.20
2023-04-11T15:43:45.906Z,12.12
2023-04-11T15:47:38.128Z,12.12
2023-04-11T15:51:30.735Z,11.98
2023-04-11T15:55:22.875Z,11.96
2023-04-11T15:59:16.145Z,11.89
2023-04-11T16:03:10.796Z,11.88
2023-04-11T16:07:03.286Z,11.83
2023-04-11T16:10:56.133Z,11.77
2023-04-11T16:14:52.320Z,11.88
2023-04-11T16:18:45.052Z,11.93
2023-04-11T16:22:37.670Z,11.90
2023-04-11T16:26:29.952Z,11.68
2023-04-11T16:30:22.488Z,11.60
2023-04-11T16:34:15.600Z,11.78
2023-04-11T16:38:08.337Z,12.05
2023-04-11T16:42:01.710Z,11.82
2023-04-11T16:45:54.059Z,11.74
2023-04-11T16:49:47.164Z,11.86
2023-04-11T16:53:40.256Z,11.77
2023-04-11T16:57:33.642Z,11.78
2023-04-11T17:01:26.313Z,11.79
2023-04-11T17:05:20.153Z,11.90
2023-04-11T17:09:12.760Z,11.83
2023-04-11T17:13:05.506Z,11.74
2023-04-11T17:16:57.950Z,11.86
2023-04-11T17:20:50.549Z,11.75
2023-04-11T17:24:43.422Z,11.64
2023-04-11T17:28:35.816Z,11.69
2023-04-11T17:32:28.010Z,11.58
2023-04-11T17:36:20.488Z,11.75
2023-04-11T17:40:13.540Z,11.74
2023-04-11T17:44:06.138Z,11.65
2023-04-11T17:47:59.388Z,11.45
2023-04-11T17:51:58.860Z,11.61
2023-04-11T17:55:52.985Z,11.51
2023-04-11T17:59:47.385Z,11.26
2023-04-11T18:03:40.455Z,11.07
2023-04-11T18:07:45.188Z,11.07
2023-04-11T18:11:42.338Z,11.04
2023-04-11T18:15:35.252Z,11.06
2023-04-11T18:19:27.756Z,11.10
2023-04-11T18:23:20.099Z,11.16
2023-04-11T18:27:12.718Z,11.02
2023-04-11T18:31:05.737Z,10.75
2023-04-11T18:35:05.600Z,10.66
2023-04-11T18:38:58.343Z,10.61
2023-04-11T18:42:53.261Z,10.41
2023-04-11T18:46:48.082Z,10.42
2023-04-11T18:50:47.666Z,10.34
2023-04-11T18:54:42.847Z,10.41
2023-04-11T18:58:40.229Z,10.33
2023-04-11T19:02:34.891Z,10.13
2023-04-11T19:06:28.316Z,10.16
2023-04-11T19:10:21.663Z,10.20
2023-04-11T19:14:17.719Z,10.07
2023-04-11T19:18:11.127Z,10.02
2023-04-11T19:22:04.589Z,10.04
2023-04-11T19:26:00.385Z,9.92
2023-04-11T19:29:55.388Z,9.86
2023-04-11T19:33:48.636Z,9.68
2023-04-11T19:37:41.551Z,9.75
2023-04-11T19:41:34.489Z,9.69
2023-04-11T19:45:27.639Z,9.79
2023-04-11T19:49:21.672Z,9.81
2023-04-11T19:53:14.832Z,9.75
2023-04-11T19:57:07.682Z,9.85
2023-04-11T20:01:11.301Z,9.93
2023-04-11T20:05:11.896Z,10.10
2023-04-11T20:09:05.308Z,9.85
2023-04-11T20:12:57.986Z,9.72
2023-04-11T20:16:50.737Z,9.54
2023-04-11T20:20:43.379Z,9.63
2023-04-11T20:24:37.693Z,9.49
2023-04-11T20:28:30.738Z,9.59
2023-04-11T20:32:23.125Z,9.58
2023-04-11T20:36:16.022Z,9.68
2023-04-11T20:40:10.247Z,9.65
2023-04-11T20:44:04.810Z,9.38
2023-04-11T20:47:57.818Z,9.23
2023-04-11T20:51:50.417Z,8.91
2023-04-11T20:55:42.994Z,8.96
2023-04-11T20:59:37.096Z,8.89
2023-04-11T21:03:30.479Z,8.93
2023-04-11T21:07:23.120Z,8.83
2023-04-11T21:11:15.834Z,8.96
2023-04-11T21:15:08.712Z,8.90
2023-04-11T21:19:01.240Z,8.79
2023-04-11T21:22:53.364Z,8.79
2023-04-11T21:26:47.200Z,8.58
2023-04-11T21:30:39.787Z,8.59
2023-04-11T21:34:32.609Z,8.59
2023-04-11T21:38:25.241Z,8.59
2023-04-11T21:42:18.023Z,8.45
2023-04-11T21:46:10.888Z,8.31
2023-04-11T21:50:03.455Z,8.17
2023-04-11T21:53:56.204Z,8.01
2023-04-11T21:57:49.077Z,8.18
2023-04-11T22:01:41.891Z,8.05
2023-04-11T22:05:34.634Z,8.07
2023-04-11T22:09:27.219Z,7.89
2023-04-11T22:13:19.852Z,7.86
2023-04-11T22:17:12.701Z,7.96
2023-04-11T22:21:08.946Z,7.96
2023-04-11T22:25:01.615Z,7.97
2023-04-11T22:28:54.683Z,8.01
2023-04-11T22:32:47.300Z,7.94
2023-04-11T22:36:39.704Z,8.00
2023-04-11T22:40:32.247Z,7.90
2023-04-11T22:44:24.789Z,7.82
2023-04-11T22:48:17.925Z,7.90
2023-04-11T22:52:14.430Z,7.77
2023-04-11T22:56:07.144Z,7.76
2023-04-11T22:59:59.701Z,7.61
2023-04-11T23:03:52.324Z,7.67
2023-04-11T23:07:44.741Z,7.56
2023-04-11T23:11:38.457Z,7.49
2023-04-11T23:15:31.947Z,7.58
2023-04-11T23:19:24.085Z,7.42
2023-04-11T23:23:17.178Z,7.31
2023-04-11T23:27:09.366Z,7.36
2023-04-11T23:31:02.559Z,7.36
2023-04-11T23:34:55.120Z,7.44
2023-04-11T23:38:47.595Z,7.39
2023-04-11T23:42:40.937Z,7.31
2023-04-11T23:46:33.413Z,7.18
2023-04-11T23:50:25.948Z,7.27
2023-04-11T23:54:18.482Z,7.04
2023-04-11T23:58:10.840Z,6.99
